createdAt,value
2022-12-01T00:00:11.786Z,17.40
2022-12-01T00:01:11.729Z,15.90
2022-12-01T00:02:11.715Z,16.20
2022-12-01T00:03:11.636Z,16.00
2022-12-01T00:04:11.464Z,15.80
2022-12-01T00:05:11.362Z,15.80
2022-12-01T00:06:11.262Z,15.90
2022-12-01T00:07:11.184Z,16.10
2022-12-01T00:08:11.117Z,16.70
2022-12-01T00:09:14.010Z,16.60
2022-12-01T00:10:10.922Z,17.10
2022-12-01T00:11:10.835Z,17.20
2022-12-01T00:12:10.753Z,17.20
2022-12-01T00:13:10.655Z,17.30
2022-12-01T00:14:10.566Z,16.10
2022-12-01T00:15:10.563Z,16.80
2022-12-01T00:16:10.449Z,15.70
2022-12-01T00:17:10.315Z,16.60
2022-12-01T00:18:10.240Z,16.90
2022-12-01T00:19:10.146Z,17.00
2022-12-01T00:20:10.053Z,16.60
2022-12-01T00:21:09.977Z,16.40
2022-12-01T00:22:09.887Z,16.50
2022-12-01T00:23:09.806Z,17.60
2022-12-01T00:24:09.718Z,17.20
2022-12-01T00:25:09.658Z,18.10
2022-12-01T00:26:09.547Z,16.50
2022-12-01T00:27:09.469Z,16.50
2022-12-01T00:28:09.399Z,15.90
2022-12-01T00:29:09.324Z,16.50
2022-12-01T00:30:09.195Z,16.70
2022-12-01T00:31:09.128Z,16.80
2022-12-01T00:32:09.089Z,16.70
2022-12-01T00:33:08.945Z,17.00
2022-12-01T00:34:11.485Z,16.70
2022-12-01T00:35:08.766Z,16.20
2022-12-01T00:36:08.660Z,16.60
2022-12-01T00:37:08.569Z,16.60
2022-12-01T00:38:08.486Z,16.50
2022-12-01T00:39:08.444Z,16.40
2022-12-01T00:40:08.304Z,17.30
2022-12-01T00:41:08.222Z,16.80
2022-12-01T00:42:13.125Z,16.80
2022-12-01T00:43:09.050Z,16.90
2022-12-01T00:44:07.984Z,16.60
2022-12-01T00:45:07.871Z,16.90
2022-12-01T00:46:07.860Z,16.80
2022-12-01T00:47:07.701Z,16.00
2022-12-01T00:48:07.613Z,16.90
2022-12-01T00:49:07.544Z,17.40
2022-12-01T00:50:07.444Z,16.00
2022-12-01T00:51:07.347Z,17.90
2022-12-01T00:52:07.262Z,16.20
2022-12-01T00:53:07.206Z,16.80
2022-12-01T00:54:07.087Z,17.20
2022-12-01T00:55:07.031Z,16.50
2022-12-01T00:56:06.933Z,16.10
2022-12-01T00:57:06.847Z,16.40
2022-12-01T00:58:06.734Z,16.50
2022-12-01T00:59:06.663Z,16.50
2022-12-01T01:00:06.626Z,16.50
2022-12-01T01:01:06.518Z,17.20
2022-12-01T01:02:06.455Z,16.50
2022-12-01T01:03:06.327Z,16.50
2022-12-01T01:04:06.241Z,17.50
2022-12-01T01:05:06.166Z,15.60
2022-12-01T01:06:06.088Z,16.50
2022-12-01T01:07:05.995Z,17.00
2022-12-01T01:08:06.041Z,17.50
2022-12-01T01:09:05.818Z,17.00
2022-12-01T01:10:05.753Z,16.10
2022-12-01T01:11:05.674Z,16.90
2022-12-01T01:12:05.569Z,16.60
2022-12-01T01:13:05.505Z,16.40
2022-12-01T01:14:05.453Z,16.50
2022-12-01T01:15:05.319Z,17.70
2022-12-01T01:16:05.251Z,17.30
2022-12-01T01:17:05.265Z,16.50
2022-12-01T01:18:05.086Z,16.10
2022-12-01T01:19:05.002Z,16.90
2022-12-01T01:20:04.906Z,16.50
2022-12-01T01:21:04.842Z,16.30
2022-12-01T01:22:04.739Z,16.20
2022-12-01T01:23:04.680Z,16.70
2022-12-01T01:24:04.588Z,15.30
2022-12-01T01:25:04.492Z,15.90
2022-12-01T01:26:04.418Z,16.40
2022-12-01T01:27:04.369Z,17.10
2022-12-01T01:28:04.249Z,17.00
2022-12-01T01:29:04.176Z,16.40
2022-12-01T01:30:04.070Z,14.70
2022-12-01T01:31:04.054Z,15.90
2022-12-01T01:32:03.911Z,15.70
2022-12-01T01:33:03.832Z,16.50
2022-12-01T01:34:03.740Z,15.80
2022-12-01T01:35:03.655Z,15.20
2022-12-01T01:36:03.581Z,15.70
2022-12-01T01:37:03.514Z,14.60
2022-12-01T01:38:03.404Z,16.60
2022-12-01T01:39:03.320Z,16.30
2022-12-01T01:40:03.220Z,15.40
2022-12-01T01:41:03.139Z,15.30
2022-12-01T01:42:03.073Z,14.80
2022-12-01T01:43:02.992Z,16.20
2022-12-01T01:44:02.935Z,15.70
2022-12-01T01:45:02.824Z,17.60
2022-12-01T01:46:02.783Z,16.10
2022-12-01T01:47:02.662Z,15.70
2022-12-01T01:48:02.601Z,15.20
2022-12-01T01:49:02.494Z,14.60
2022-12-01T01:50:02.423Z,14.70
2022-12-01T01:51:02.358Z,16.90
2022-12-01T01:52:02.273Z,15.40
2022-12-01T01:53:02.243Z,16.20
2022-12-01T01:54:02.128Z,18.70
2022-12-01T01:55:02.056Z,14.80
2022-12-01T01:56:01.975Z,14.30
2022-12-01T01:57:01.906Z,15.40
2022-12-01T01:58:01.837Z,16.70
2022-12-01T01:59:01.758Z,14.70
2022-12-01T02:00:01.679Z,16.50
2022-12-01T02:01:01.644Z,15.80
2022-12-01T02:02:01.574Z,17.80
2022-12-01T02:03:01.587Z,16.50
2022-12-01T02:04:01.396Z,17.60
2022-12-01T02:05:01.313Z,16.70
2022-12-01T02:06:04.855Z,17.20
2022-12-01T02:07:01.167Z,18.90
2022-12-01T02:08:01.214Z,20.10
2022-12-01T02:09:01.021Z,19.30
2022-12-01T02:10:00.958Z,18.60
2022-12-01T02:11:00.886Z,18.90
2022-12-01T02:12:00.820Z,17.50
2022-12-01T02:13:00.747Z,18.70
2022-12-01T02:14:00.677Z,19.00
2022-12-01T02:15:00.608Z,17.80
2022-12-01T02:16:00.538Z,19.60
2022-12-01T02:17:00.575Z,26.90
2022-12-01T02:18:00.387Z,25.90
2022-12-01T02:19:00.350Z,25.70
2022-12-01T02:20:00.254Z,25.30
2022-12-01T02:21:00.198Z,24.30
2022-12-01T02:22:00.138Z,23.90
2022-12-01T02:23:00.063Z,25.80
2022-12-01T02:23:59.980Z,26.00
2022-12-01T02:24:59.917Z,25.40
2022-12-01T02:25:59.829Z,26.70
2022-12-01T02:26:59.783Z,28.00
2022-12-01T02:27:59.704Z,26.80
2022-12-01T02:28:59.621Z,28.60
2022-12-01T02:29:59.550Z,28.10
2022-12-01T02:30:59.618Z,28.30
2022-12-01T02:31:59.410Z,29.10
2022-12-01T02:32:59.321Z,26.70
2022-12-01T02:33:59.260Z,29.30
2022-12-01T02:34:59.204Z,27.50
2022-12-01T02:35:59.133Z,27.20
2022-12-01T02:36:59.053Z,25.70
2022-12-01T02:37:58.984Z,28.90
2022-12-01T02:38:58.902Z,27.20
2022-12-01T02:39:58.830Z,27.50
2022-12-01T02:40:58.765Z,26.50
2022-12-01T02:41:58.681Z,27.10
2022-12-01T02:42:58.600Z,26.30
2022-12-01T02:43:58.528Z,27.00
2022-12-01T02:44:58.480Z,26.50
2022-12-01T02:45:58.450Z,27.50
2022-12-01T02:46:58.340Z,27.00
2022-12-01T02:47:58.261Z,28.20
2022-12-01T02:48:58.219Z,28.20
2022-12-01T02:49:58.104Z,28.50
2022-12-01T02:50:58.032Z,29.20
2022-12-01T02:51:57.964Z,28.10
2022-12-01T02:52:57.863Z,27.50
2022-12-01T02:53:57.794Z,28.30
2022-12-01T02:54:57.713Z,28.30
2022-12-01T02:55:57.668Z,28.50
2022-12-01T02:56:57.597Z,29.30
2022-12-01T02:57:57.502Z,28.30
2022-12-01T02:58:57.423Z,27.50
2022-12-01T02:59:57.345Z,27.90
2022-12-01T03:00:57.351Z,26.30
2022-12-01T03:01:57.205Z,26.60
2022-12-01T03:02:57.180Z,27.50
2022-12-01T03:03:57.034Z,26.60
2022-12-01T03:04:56.995Z,26.60
2022-12-01T03:05:56.886Z,27.70
2022-12-01T03:06:56.855Z,26.30
2022-12-01T03:07:56.805Z,26.20
2022-12-01T03:08:56.635Z,26.10
2022-12-01T03:09:56.576Z,26.00
2022-12-01T03:10:56.486Z,26.00
2022-12-01T03:11:56.428Z,27.90
2022-12-01T03:12:56.344Z,25.70
2022-12-01T03:13:56.247Z,27.10
2022-12-01T03:14:56.188Z,27.50
2022-12-01T03:15:56.170Z,28.20
2022-12-01T03:16:56.027Z,26.70
2022-12-01T03:17:55.962Z,27.30
2022-12-01T03:18:55.876Z,26.90
2022-12-01T03:19:55.807Z,27.50
2022-12-01T03:20:55.736Z,28.20
2022-12-01T03:21:55.648Z,27.30
2022-12-01T03:22:55.600Z,26.70
2022-12-01T03:23:55.514Z,27.50
2022-12-01T03:24:55.429Z,27.00
2022-12-01T03:25:55.350Z,27.10
2022-12-01T03:26:55.269Z,28.40
2022-12-01T03:28:13.797Z,27.60
2022-12-01T03:28:56.129Z,27.30
2022-12-01T03:29:55.057Z,27.50
2022-12-01T03:30:54.995Z,27.90
2022-12-01T03:31:54.876Z,27.80
2022-12-01T03:32:54.831Z,28.50
2022-12-01T03:33:54.741Z,26.30
2022-12-01T03:34:54.642Z,26.30
2022-12-01T03:35:54.565Z,27.50
2022-12-01T03:36:54.510Z,27.40
2022-12-01T03:37:54.460Z,25.30
2022-12-01T03:38:54.358Z,26.00
2022-12-01T03:39:59.748Z,27.70
2022-12-01T03:40:55.199Z,26.70
2022-12-01T03:41:54.121Z,27.20
2022-12-01T03:42:54.041Z,26.80
2022-12-01T03:43:53.969Z,27.30
2022-12-01T03:44:53.920Z,28.70
2022-12-01T03:45:53.865Z,27.50
2022-12-01T03:46:53.754Z,25.10
2022-12-01T03:47:53.674Z,26.70
2022-12-01T03:48:53.607Z,26.70
2022-12-01T03:49:53.545Z,26.50
2022-12-01T03:50:53.457Z,28.40
2022-12-01T03:51:53.382Z,26.80
2022-12-01T03:52:53.317Z,27.10
2022-12-01T03:53:53.233Z,27.50
2022-12-01T03:54:53.181Z,27.40
2022-12-01T03:55:53.103Z,27.10
2022-12-01T03:56:53.025Z,26.70
2022-12-01T03:57:52.975Z,26.70
2022-12-01T03:58:52.887Z,27.00
2022-12-01T03:59:52.826Z,27.70
2022-12-01T04:00:52.760Z,27.70
2022-12-01T04:01:52.741Z,28.90
2022-12-01T04:02:52.613Z,28.20
2022-12-01T04:03:52.516Z,26.40
2022-12-01T04:04:52.428Z,28.20
2022-12-01T04:05:52.380Z,26.20
2022-12-01T04:06:52.286Z,26.90
2022-12-01T04:07:52.242Z,27.00
2022-12-01T04:08:52.160Z,26.30
2022-12-01T04:09:52.194Z,28.00
2022-12-01T04:10:52.031Z,27.70
2022-12-01T04:11:51.927Z,28.00
2022-12-01T04:12:51.852Z,25.70
2022-12-01T04:13:51.794Z,28.70
2022-12-01T04:14:51.687Z,26.70
2022-12-01T04:15:51.700Z,27.70
2022-12-01T04:16:51.587Z,26.30
2022-12-01T04:17:51.491Z,26.30
2022-12-01T04:18:51.411Z,27.30
2022-12-01T04:19:51.524Z,28.00
2022-12-01T04:20:51.259Z,26.90
2022-12-01T04:21:51.205Z,26.20
2022-12-01T04:22:51.119Z,27.10
2022-12-01T04:23:51.039Z,26.60
2022-12-01T04:24:50.969Z,27.40
2022-12-01T04:25:50.910Z,26.10
2022-12-01T04:26:50.837Z,25.60
2022-12-01T04:27:50.803Z,26.50
2022-12-01T04:28:50.691Z,25.80
2022-12-01T04:29:50.934Z,26.80
2022-12-01T04:30:50.573Z,27.50
2022-12-01T04:31:50.543Z,28.10
2022-12-01T04:32:50.419Z,26.50
2022-12-01T04:33:50.323Z,27.70
2022-12-01T04:34:50.251Z,25.80
2022-12-01T04:35:50.172Z,28.20
2022-12-01T04:36:50.089Z,25.50
2022-12-01T04:37:50.045Z,26.50
2022-12-01T04:38:49.945Z,27.80
2022-12-01T04:39:50.065Z,27.10
2022-12-01T04:40:49.784Z,27.10
2022-12-01T04:41:49.691Z,25.20
2022-12-01T04:42:49.613Z,25.90
2022-12-01T04:43:49.546Z,26.30
2022-12-01T04:44:49.455Z,26.70
2022-12-01T04:45:49.374Z,25.80
2022-12-01T04:46:49.354Z,24.70
2022-12-01T04:47:49.227Z,26.20
2022-12-01T04:48:49.152Z,24.60
2022-12-01T04:49:49.444Z,25.30
2022-12-01T04:50:48.975Z,26.40
2022-12-01T04:51:48.929Z,25.60
2022-12-01T04:52:48.861Z,24.80
2022-12-01T04:53:48.781Z,25.40
2022-12-01T04:54:48.704Z,24.80
2022-12-01T04:55:48.627Z,26.20
2022-12-01T04:56:48.557Z,25.60
2022-12-01T04:57:48.494Z,25.80
2022-12-01T04:58:48.409Z,25.50
2022-12-01T04:59:48.655Z,27.80
2022-12-01T05:00:48.325Z,26.60
2022-12-01T05:01:48.491Z,28.10
2022-12-01T05:02:48.153Z,27.20
2022-12-01T05:03:48.067Z,26.70
2022-12-01T05:04:48.006Z,26.90
2022-12-01T05:05:47.930Z,25.30
2022-12-01T05:06:47.851Z,26.60
2022-12-01T05:07:47.887Z,26.90
2022-12-01T05:08:47.711Z,26.10
2022-12-01T05:09:48.168Z,27.10
2022-12-01T05:10:47.569Z,27.60
2022-12-01T05:11:47.496Z,27.30
2022-12-01T05:12:47.425Z,27.30
2022-12-01T05:13:47.346Z,27.30
2022-12-01T05:14:47.287Z,25.50
2022-12-01T05:15:47.218Z,26.40
2022-12-01T05:16:47.178Z,25.80
2022-12-01T05:17:47.052Z,25.30
2022-12-01T05:18:47.071Z,26.80
2022-12-01T05:19:47.252Z,26.40
2022-12-01T05:20:46.854Z,26.90
2022-12-01T05:21:46.768Z,25.90
2022-12-01T05:23:04.758Z,27.40
2022-12-01T05:23:47.619Z,27.70
2022-12-01T05:24:46.532Z,26.30
2022-12-01T05:25:46.485Z,27.30
2022-12-01T05:26:46.379Z,25.80
2022-12-01T05:27:46.309Z,27.10
2022-12-01T05:28:46.240Z,25.00
2022-12-01T05:29:46.366Z,26.20
2022-12-01T05:30:46.092Z,26.10
2022-12-01T05:31:46.117Z,26.70
2022-12-01T05:32:45.936Z,27.30
2022-12-01T05:33:45.844Z,25.90
2022-12-01T05:34:45.780Z,27.20
2022-12-01T05:35:45.703Z,25.90
2022-12-01T05:36:45.625Z,26.80
2022-12-01T05:37:45.550Z,26.80
2022-12-01T05:38:45.473Z,26.00
2022-12-01T05:39:45.490Z,26.00
2022-12-01T05:40:45.320Z,26.70
2022-12-01T05:41:45.276Z,25.20
2022-12-01T05:42:45.164Z,27.50
2022-12-01T05:43:45.093Z,27.40
2022-12-01T05:44:45.014Z,27.50
2022-12-01T05:45:44.979Z,26.40
2022-12-01T05:46:44.844Z,27.90
2022-12-01T05:47:44.785Z,26.90
2022-12-01T05:48:45.678Z,25.50
2022-12-01T05:49:44.616Z,25.90
2022-12-01T05:50:44.526Z,25.20
2022-12-01T05:51:44.453Z,25.70
2022-12-01T05:52:44.396Z,25.60
2022-12-01T05:53:44.295Z,25.80
2022-12-01T05:54:44.215Z,26.40
2022-12-01T05:55:44.156Z,26.50
2022-12-01T05:56:44.056Z,26.00
2022-12-01T05:57:43.987Z,25.60
2022-12-01T05:58:43.929Z,26.70
2022-12-01T05:59:43.857Z,27.80
2022-12-01T06:00:46.018Z,26.00
2022-12-01T06:01:43.736Z,27.20
2022-12-01T06:02:43.684Z,26.80
2022-12-01T06:03:43.592Z,26.60
2022-12-01T06:04:43.460Z,26.70
2022-12-01T06:05:43.387Z,27.70
2022-12-01T06:06:43.319Z,27.30
2022-12-01T06:07:43.259Z,27.00
2022-12-01T06:08:43.167Z,26.10
2022-12-01T06:09:43.095Z,26.00
2022-12-01T06:10:42.996Z,26.80
2022-12-01T06:11:42.953Z,26.50
2022-12-01T06:12:42.851Z,26.70
2022-12-01T06:13:42.792Z,27.00
2022-12-01T06:14:42.729Z,25.30
2022-12-01T06:15:42.640Z,26.70
2022-12-01T06:16:42.609Z,26.10
2022-12-01T06:17:42.472Z,26.50
2022-12-01T06:18:42.400Z,26.90
2022-12-01T06:19:42.422Z,28.10
2022-12-01T06:20:42.272Z,26.50
2022-12-01T06:21:42.197Z,26.40
2022-12-01T06:22:42.100Z,25.00
2022-12-01T06:23:42.038Z,26.70
2022-12-01T06:24:41.960Z,26.50
2022-12-01T06:25:41.917Z,25.80
2022-12-01T06:26:41.817Z,26.40
2022-12-01T06:27:41.757Z,25.30
2022-12-01T06:28:41.682Z,25.90
2022-12-01T06:29:47.854Z,25.10
2022-12-01T06:30:42.520Z,25.10
2022-12-01T06:31:41.483Z,25.30
2022-12-01T06:32:41.361Z,25.10
2022-12-01T06:33:41.293Z,25.90
2022-12-01T06:34:41.225Z,24.60
2022-12-01T06:35:41.134Z,26.00
2022-12-01T06:36:41.063Z,25.30
2022-12-01T06:37:40.973Z,25.30
2022-12-01T06:38:40.904Z,24.20
2022-12-01T06:39:40.833Z,25.70
2022-12-01T06:40:40.754Z,26.10
2022-12-01T06:41:40.714Z,25.40
2022-12-01T06:42:40.618Z,25.40
2022-12-01T06:43:40.545Z,23.90
2022-12-01T06:44:40.455Z,24.20
2022-12-01T06:45:40.433Z,24.50
2022-12-01T06:46:40.314Z,23.30
2022-12-01T06:47:40.237Z,24.50
2022-12-01T06:48:40.155Z,24.60
2022-12-01T06:49:40.084Z,24.20
2022-12-01T06:50:39.995Z,24.40
2022-12-01T06:51:39.923Z,23.70
2022-12-01T06:52:39.856Z,24.00
2022-12-01T06:53:39.774Z,24.00
2022-12-01T06:54:39.665Z,23.30
2022-12-01T06:55:39.596Z,23.40
2022-12-01T06:56:39.516Z,23.20
2022-12-01T06:57:39.457Z,24.00
2022-12-01T06:58:39.384Z,23.10
2022-12-01T06:59:39.295Z,22.50
2022-12-01T07:00:39.211Z,22.40
2022-12-01T07:01:39.258Z,21.60
2022-12-01T07:02:39.107Z,22.60
2022-12-01T07:03:38.968Z,22.60
2022-12-01T07:04:38.893Z,22.20
2022-12-01T07:05:38.805Z,23.00
2022-12-01T07:06:38.709Z,21.70
2022-12-01T07:07:38.668Z,22.10
2022-12-01T07:08:38.575Z,22.00
2022-12-01T07:09:38.498Z,22.70
2022-12-01T07:10:38.409Z,21.80
2022-12-01T07:11:38.358Z,23.30
2022-12-01T07:12:38.259Z,21.40
2022-12-01T07:13:38.181Z,22.00
2022-12-01T07:14:38.119Z,21.30
2022-12-01T07:15:38.047Z,21.90
2022-12-01T07:16:37.988Z,21.60
2022-12-01T07:17:37.870Z,22.60
2022-12-01T07:18:37.797Z,22.90
2022-12-01T07:19:37.719Z,21.60
2022-12-01T07:20:37.632Z,21.10
2022-12-01T07:21:37.549Z,21.30
2022-12-01T07:22:37.455Z,21.90
2022-12-01T07:23:37.374Z,21.60
2022-12-01T07:24:37.279Z,22.50
2022-12-01T07:25:37.212Z,21.70
2022-12-01T07:26:37.130Z,21.70
2022-12-01T07:27:37.063Z,21.00
2022-12-01T07:28:36.962Z,21.30
2022-12-01T07:29:36.901Z,22.20
2022-12-01T07:30:36.848Z,21.40
2022-12-01T07:31:36.762Z,21.30
2022-12-01T07:32:36.681Z,20.80
2022-12-01T07:33:36.594Z,20.80
2022-12-01T07:34:36.523Z,21.80
2022-12-01T07:35:36.462Z,22.50
2022-12-01T07:36:36.361Z,22.60
2022-12-01T07:37:36.292Z,21.20
2022-12-01T07:38:36.225Z,21.30
2022-12-01T07:39:36.164Z,21.30
2022-12-01T07:40:36.072Z,20.40
2022-12-01T07:41:35.992Z,21.70
2022-12-01T07:42:35.906Z,21.60
2022-12-01T07:43:35.827Z,20.70
2022-12-01T07:44:35.759Z,20.60
2022-12-01T07:45:35.686Z,20.60
2022-12-01T07:46:35.644Z,20.60
2022-12-01T07:47:35.538Z,21.00
2022-12-01T07:48:35.453Z,20.20
2022-12-01T07:49:35.403Z,20.10
2022-12-01T07:50:35.301Z,20.50
2022-12-01T07:51:35.226Z,20.60
2022-12-01T07:52:35.156Z,20.90
2022-12-01T07:53:35.066Z,19.70
2022-12-01T07:54:34.985Z,19.50
2022-12-01T07:55:34.920Z,19.20
2022-12-01T07:56:34.844Z,19.30
2022-12-01T07:57:34.736Z,20.20
2022-12-01T07:58:34.647Z,19.10
2022-12-01T07:59:34.570Z,18.90
2022-12-01T08:00:34.478Z,18.40
2022-12-01T08:01:34.456Z,19.40
2022-12-01T08:02:34.401Z,19.20
2022-12-01T08:03:34.229Z,19.40
2022-12-01T08:04:34.140Z,17.90
2022-12-01T08:05:34.075Z,19.40
2022-12-01T08:06:33.967Z,17.70
2022-12-01T08:07:33.932Z,19.00
2022-12-01T08:08:33.776Z,19.90
2022-12-01T08:09:33.698Z,20.10
2022-12-01T08:10:33.618Z,18.30
2022-12-01T08:11:33.546Z,17.90
2022-12-01T08:12:33.475Z,18.10
2022-12-01T08:13:33.389Z,16.60
2022-12-01T08:14:33.278Z,16.90
2022-12-01T08:15:33.291Z,17.40
2022-12-01T08:16:33.120Z,16.80
2022-12-01T08:17:33.071Z,17.60
2022-12-01T08:18:32.941Z,17.50
2022-12-01T08:19:32.882Z,17.30
2022-12-01T08:20:32.795Z,17.50
2022-12-01T08:21:32.680Z,17.50
2022-12-01T08:22:32.607Z,17.40
2022-12-01T08:23:32.529Z,16.50
2022-12-01T08:24:32.419Z,17.40
2022-12-01T08:25:32.342Z,17.60
2022-12-01T08:26:32.254Z,16.40
2022-12-01T08:27:32.202Z,16.60
2022-12-01T08:28:32.094Z,18.10
2022-12-01T08:29:31.992Z,16.70
2022-12-01T08:30:31.900Z,16.80
2022-12-01T08:31:31.866Z,17.20
2022-12-01T08:32:31.732Z,16.00
2022-12-01T08:33:31.660Z,16.50
2022-12-01T08:34:31.580Z,17.20
2022-12-01T08:35:31.474Z,16.50
2022-12-01T08:36:31.403Z,17.30
2022-12-01T08:37:31.307Z,16.90
2022-12-01T08:38:31.215Z,16.70
2022-12-01T08:39:31.149Z,16.40
2022-12-01T08:40:31.067Z,16.80
2022-12-01T08:41:30.974Z,16.40
2022-12-01T08:42:30.900Z,16.70
2022-12-01T08:43:56.616Z,16.70
2022-12-01T08:44:31.795Z,15.90
2022-12-01T08:45:30.637Z,16.90
2022-12-01T08:46:30.598Z,15.60
2022-12-01T08:47:30.486Z,17.40
2022-12-01T08:48:30.412Z,16.10
2022-12-01T08:49:30.308Z,16.50
2022-12-01T08:50:30.239Z,17.80
2022-12-01T08:51:30.161Z,15.80
2022-12-01T08:52:30.046Z,16.80
2022-12-01T08:53:29.959Z,16.00
2022-12-01T08:54:29.890Z,17.40
2022-12-01T08:55:29.805Z,15.30
2022-12-01T08:56:29.707Z,15.80
2022-12-01T08:57:29.638Z,16.20
2022-12-01T08:58:29.547Z,15.80
2022-12-01T08:59:29.448Z,15.40
2022-12-01T09:00:29.431Z,16.50
2022-12-01T09:01:29.352Z,17.00
2022-12-01T09:02:29.374Z,16.80
2022-12-01T09:03:29.148Z,16.10
2022-12-01T09:04:29.030Z,16.00
2022-12-01T09:05:28.940Z,15.40
2022-12-01T09:06:28.840Z,15.50
2022-12-01T09:07:28.823Z,15.50
2022-12-01T09:08:28.655Z,16.40
2022-12-01T09:09:28.556Z,15.30
2022-12-01T09:10:28.503Z,15.80
2022-12-01T09:11:28.380Z,15.00
2022-12-01T09:12:28.311Z,15.30
2022-12-01T09:13:28.207Z,17.20
2022-12-01T09:14:28.125Z,15.40
2022-12-01T09:15:28.041Z,14.90
2022-12-01T09:16:28.089Z,15.10
2022-12-01T09:17:27.849Z,14.50
2022-12-01T09:18:27.798Z,14.40
2022-12-01T09:19:27.688Z,14.70
2022-12-01T09:20:27.590Z,14.80
2022-12-01T09:21:27.538Z,15.50
2022-12-01T09:22:27.422Z,14.70
2022-12-01T09:23:27.351Z,15.70
2022-12-01T09:24:27.241Z,15.70
2022-12-01T09:25:27.166Z,16.00
2022-12-01T09:26:27.074Z,15.70
2022-12-01T09:27:26.953Z,16.10
2022-12-01T09:28:26.893Z,16.30
2022-12-01T09:29:26.775Z,15.40
2022-12-01T09:30:26.694Z,16.10
2022-12-01T09:31:26.717Z,14.90
2022-12-01T09:32:26.504Z,15.20
2022-12-01T09:33:26.395Z,14.60
2022-12-01T09:34:26.315Z,15.20
2022-12-01T09:35:26.205Z,15.30
2022-12-01T09:36:26.116Z,15.10
2022-12-01T09:37:26.046Z,15.50
2022-12-01T09:38:25.947Z,15.20
2022-12-01T09:39:25.830Z,14.90
2022-12-01T09:40:25.787Z,13.80
2022-12-01T09:41:25.638Z,15.80
2022-12-01T09:42:28.342Z,14.80
2022-12-01T09:43:26.466Z,15.70
2022-12-01T09:44:25.358Z,14.00
2022-12-01T09:45:25.269Z,14.80
2022-12-01T09:46:25.216Z,15.10
2022-12-01T09:47:25.087Z,15.40
2022-12-01T09:48:25.006Z,14.00
2022-12-01T09:49:24.888Z,14.30
2022-12-01T09:50:24.827Z,15.00
2022-12-01T09:51:24.707Z,15.20
2022-12-01T09:52:24.610Z,14.80
2022-12-01T09:53:24.518Z,14.60
2022-12-01T09:54:24.430Z,14.20
2022-12-01T09:55:24.307Z,14.60
2022-12-01T09:56:24.221Z,14.60
2022-12-01T09:57:24.147Z,14.60
2022-12-01T09:58:24.022Z,14.90
2022-12-01T09:59:23.942Z,14.80
2022-12-01T10:00:23.960Z,14.70
2022-12-01T10:01:27.270Z,13.90
2022-12-01T10:02:23.795Z,14.30
2022-12-01T10:03:23.549Z,15.60
2022-12-01T10:04:23.462Z,14.80
2022-12-01T10:05:23.366Z,14.30
2022-12-01T10:06:28.124Z,15.10
2022-12-01T10:07:24.250Z,15.00
2022-12-01T10:08:26.959Z,14.20
2022-12-01T10:09:22.971Z,14.70
2022-12-01T10:10:22.874Z,14.40
2022-12-01T10:11:22.767Z,15.00
2022-12-01T10:12:22.685Z,15.60
2022-12-01T10:13:22.576Z,15.20
2022-12-01T10:14:22.479Z,14.60
2022-12-01T10:15:22.396Z,13.70
2022-12-01T10:16:22.321Z,14.30
2022-12-01T10:17:22.184Z,13.70
2022-12-01T10:18:22.103Z,14.80
2022-12-01T10:19:22.004Z,15.00
2022-12-01T10:20:21.907Z,14.60
2022-12-01T10:21:21.795Z,15.00
2022-12-01T10:22:21.685Z,15.20
2022-12-01T10:23:21.577Z,14.10
2022-12-01T10:24:21.502Z,13.60
2022-12-01T10:25:21.404Z,14.00
2022-12-01T10:26:21.313Z,15.90
2022-12-01T10:27:21.193Z,16.60
2022-12-01T10:28:21.087Z,14.30
2022-12-01T10:29:20.984Z,14.00
2022-12-01T10:30:20.910Z,15.30
2022-12-01T10:31:20.841Z,14.10
2022-12-01T10:32:20.697Z,14.80
2022-12-01T10:33:20.586Z,13.50
2022-12-01T10:34:20.497Z,14.40
2022-12-01T10:35:20.417Z,14.80
2022-12-01T10:36:20.297Z,14.40
2022-12-01T10:37:20.278Z,14.20
2022-12-01T10:38:20.097Z,14.60
2022-12-01T10:39:20.022Z,14.80
2022-12-01T10:40:19.922Z,15.10
2022-12-01T10:41:19.779Z,15.60
2022-12-01T10:42:19.678Z,13.30
2022-12-01T10:43:19.568Z,14.90
2022-12-01T10:44:19.478Z,15.60
2022-12-01T10:45:19.369Z,14.50
2022-12-01T10:46:19.331Z,15.20
2022-12-01T10:47:19.149Z,14.80
2022-12-01T10:48:19.063Z,15.50
2022-12-01T10:49:18.953Z,15.50
2022-12-01T10:50:18.852Z,16.00
2022-12-01T10:51:18.751Z,14.90
2022-12-01T10:52:18.640Z,15.30
2022-12-01T10:53:18.532Z,15.40
2022-12-01T10:54:18.431Z,14.40
2022-12-01T10:55:18.341Z,14.50
2022-12-01T10:56:18.248Z,16.00
2022-12-01T10:57:18.118Z,15.80
2022-12-01T10:58:18.021Z,16.00
2022-12-01T10:59:17.913Z,15.60
2022-12-01T11:00:43.013Z,15.50
2022-12-01T11:01:18.798Z,15.00
2022-12-01T11:02:17.737Z,16.10
2022-12-01T11:03:21.584Z,14.90
2022-12-01T11:04:17.382Z,16.00
2022-12-01T11:05:17.273Z,16.70
2022-12-01T11:06:17.170Z,16.10
2022-12-01T11:07:17.067Z,15.10
2022-12-01T11:08:16.976Z,16.00
2022-12-01T11:09:20.279Z,16.20
2022-12-01T11:10:17.754Z,16.10
2022-12-01T11:11:16.644Z,15.80
2022-12-01T11:12:16.591Z,15.90
2022-12-01T11:13:16.451Z,15.80
2022-12-01T11:14:16.331Z,15.60
2022-12-01T11:15:16.215Z,16.40
2022-12-01T11:16:16.171Z,15.10
2022-12-01T11:17:16.014Z,15.60
2022-12-01T11:18:15.930Z,15.90
2022-12-01T11:19:16.083Z,16.20
2022-12-01T11:20:15.835Z,15.80
2022-12-01T11:21:15.606Z,15.80
2022-12-01T11:22:15.498Z,15.90
2022-12-01T11:23:15.396Z,16.00
2022-12-01T11:24:15.297Z,15.90
2022-12-01T11:25:15.214Z,15.70
2022-12-01T11:26:15.097Z,15.40
2022-12-01T11:27:14.996Z,15.40
2022-12-01T11:28:14.909Z,15.80
2022-12-01T11:29:14.807Z,15.50
2022-12-01T11:30:14.744Z,14.70
2022-12-01T11:31:14.624Z,15.70
2022-12-01T11:32:14.619Z,15.60
2022-12-01T11:33:14.377Z,16.90
2022-12-01T11:34:14.300Z,16.10
2022-12-01T11:35:14.179Z,15.90
2022-12-01T11:36:16.284Z,15.80
2022-12-01T11:37:13.970Z,15.70
2022-12-01T11:38:29.219Z,16.00
2022-12-01T11:39:14.795Z,16.10
2022-12-01T11:40:13.690Z,17.00
2022-12-01T11:41:13.571Z,15.50
2022-12-01T11:42:13.470Z,15.90
2022-12-01T11:43:13.362Z,15.40
2022-12-01T11:44:43.050Z,16.60
2022-12-01T11:45:14.153Z,16.60
2022-12-01T11:46:13.098Z,16.20
2022-12-01T11:47:22.640Z,17.60
2022-12-01T11:48:13.888Z,16.50
2022-12-01T11:49:12.754Z,16.90
2022-12-01T11:50:12.662Z,16.90
2022-12-01T11:51:12.548Z,16.80
2022-12-01T11:52:12.435Z,16.80
2022-12-01T11:53:12.354Z,17.00
2022-12-01T11:54:12.245Z,17.30
2022-12-01T11:55:12.142Z,16.00
2022-12-01T11:56:12.038Z,16.60
2022-12-01T11:57:33.134Z,17.00
2022-12-01T11:58:12.803Z,17.00
2022-12-01T11:59:11.693Z,16.60
2022-12-01T12:00:11.666Z,16.60
2022-12-01T12:01:11.505Z,17.50
2022-12-01T12:02:11.465Z,17.80
2022-12-01T12:03:11.330Z,16.80
2022-12-01T12:04:11.184Z,17.80
2022-12-01T12:05:11.095Z,18.50
2022-12-01T12:06:38.797Z,18.10
2022-12-01T12:07:11.846Z,18.30
2022-12-01T12:08:10.763Z,18.90
2022-12-01T12:09:10.693Z,17.20
2022-12-01T12:10:10.541Z,17.20
2022-12-01T12:11:10.525Z,17.20
2022-12-01T12:12:10.319Z,18.40
2022-12-01T12:13:10.207Z,19.00
2022-12-01T12:14:10.098Z,18.80
2022-12-01T12:15:10.041Z,18.00
2022-12-01T12:16:09.929Z,18.40
2022-12-01T12:17:09.775Z,19.00
2022-12-01T12:18:09.743Z,19.40
2022-12-01T12:19:09.596Z,18.00
2022-12-01T12:20:09.913Z,19.40
2022-12-01T12:21:09.378Z,17.70
2022-12-01T12:22:09.281Z,19.00
2022-12-01T12:23:09.157Z,19.40
2022-12-01T12:24:09.050Z,19.50
2022-12-01T12:25:08.932Z,18.70
2022-12-01T12:26:08.849Z,18.60
2022-12-01T12:27:08.717Z,19.40
2022-12-01T12:28:08.651Z,19.50
2022-12-01T12:29:13.615Z,19.00
2022-12-01T12:30:09.429Z,20.10
2022-12-01T12:31:08.340Z,19.00
2022-12-01T12:32:08.213Z,18.90
2022-12-01T12:33:08.132Z,19.00
2022-12-01T12:34:08.010Z,19.00
2022-12-01T12:35:07.947Z,18.70
2022-12-01T12:36:07.820Z,18.60
2022-12-01T12:37:07.787Z,19.60
2022-12-01T12:38:07.617Z,19.60
2022-12-01T12:39:09.813Z,19.80
2022-12-01T12:40:08.393Z,21.40
2022-12-01T12:41:07.335Z,19.80
2022-12-01T12:42:07.213Z,19.60
2022-12-01T12:43:07.113Z,19.90
2022-12-01T12:44:07.014Z,18.70
2022-12-01T12:45:06.944Z,19.90
2022-12-01T12:46:06.873Z,19.40
2022-12-01T12:47:06.698Z,21.50
2022-12-01T12:48:06.595Z,19.30
2022-12-01T12:49:20.796Z,21.10
2022-12-01T12:50:07.413Z,20.30
2022-12-01T12:51:06.313Z,22.20